createdAt,value
2023-03-23T15:58:24.851Z,19.40
2023-03-23T16:00:53.809Z,19.40
2023-03-23T16:03:27.646Z,19.40
2023-03-23T16:05:57.630Z,19.40
2023-03-23T16:08:27.012Z,19.30
2023-03-23T16:10:54.940Z,19.30
2023-03-23T16:13:23.100Z,19.30
2023-03-23T16:15:51.669Z,19.20
2023-03-23T16:18:21.687Z,19.20
2023-03-23T16:20:50.881Z,19.10
2023-03-23T16:23:18.983Z,19.10
2023-03-23T16:25:51.057Z,19.00
2023-03-23T16:28:20.624Z,19.00
2023-03-23T16:30:51.254Z,18.90
2023-03-23T16:33:19.382Z,18.90
2023-03-23T16:35:47.585Z,18.90
2023-03-23T16:38:16.769Z,18.90
2023-03-23T16:40:45.893Z,18.80
2023-03-23T16:43:15.747Z,18.80
2023-03-23T16:45:45.820Z,18.70
2023-03-23T16:48:16.079Z,18.70
2023-03-23T16:50:45.552Z,18.60
2023-03-23T16:53:13.752Z,18.60
2023-03-23T16:55:42.348Z,18.60
2023-03-23T16:58:17.140Z,18.50
2023-03-23T17:00:49.776Z,18.50
2023-03-23T17:03:18.781Z,18.40
2023-03-23T17:05:48.620Z,18.40
2023-03-23T17:08:16.874Z,18.40
2023-03-23T17:10:45.390Z,18.30
2023-03-23T17:13:13.803Z,18.30
2023-03-23T17:15:46.078Z,18.20
2023-03-23T17:18:17.039Z,18.10
2023-03-23T17:20:45.219Z,18.10
2023-03-23T17:23:13.504Z,18.10
2023-03-23T17:25:41.848Z,18.00
2023-03-23T17:28:10.168Z,18.00
2023-03-23T17:30:41.165Z,17.90
2023-03-23T17:33:09.205Z,17.90
2023-03-23T17:35:38.667Z,17.80
2023-03-23T17:38:06.782Z,17.80
2023-03-23T17:40:34.955Z,17.80
2023-03-23T17:43:03.045Z,17.80
2023-03-23T17:45:31.072Z,17.70
2023-03-23T17:47:59.229Z,17.70
2023-03-23T17:50:27.733Z,17.70
2023-03-23T17:52:58.007Z,17.60
2023-03-23T17:55:26.075Z,17.50
2023-03-23T17:57:54.033Z,17.50
2023-03-23T18:00:22.694Z,17.50
2023-03-23T18:02:50.803Z,17.50
2023-03-23T18:05:18.889Z,17.40
2023-03-23T18:07:46.998Z,17.40
2023-03-23T18:10:17.225Z,17.40
2023-03-23T18:12:45.398Z,17.40
2023-03-23T18:15:13.498Z,17.40
2023-03-23T18:17:42.345Z,17.30
2023-03-23T18:20:10.833Z,17.30
2023-03-23T18:22:38.795Z,17.20
2023-03-23T18:25:07.212Z,17.20
2023-03-23T18:27:36.853Z,17.10
2023-03-23T18:30:05.619Z,17.10
2023-03-23T18:32:36.379Z,17.00
2023-03-23T18:35:04.880Z,16.90
2023-03-23T18:37:32.985Z,17.00
2023-03-23T18:40:01.027Z,16.90
2023-03-23T18:42:29.405Z,16.90
2023-03-23T18:44:59.954Z,16.80
2023-03-23T18:47:28.247Z,16.80
2023-03-23T18:49:56.650Z,16.80
2023-03-23T18:52:26.521Z,16.70
2023-03-23T18:54:54.909Z,16.70
2023-03-23T18:57:23.772Z,16.60
2023-03-23T18:59:52.430Z,16.60
2023-03-23T19:02:22.269Z,16.60
2023-03-23T19:04:50.739Z,16.50
2023-03-23T19:07:19.888Z,16.60
2023-03-23T19:09:48.165Z,16.50
2023-03-23T19:12:16.758Z,16.50
2023-03-23T19:14:44.773Z,16.50
2023-03-23T19:17:12.739Z,16.50
2023-03-23T19:19:43.147Z,16.50
2023-03-23T19:22:11.884Z,16.50
2023-03-23T19:24:40.031Z,16.50
2023-03-23T19:27:08.354Z,16.40
2023-03-23T19:29:36.671Z,16.40
2023-03-23T19:32:04.725Z,16.30
2023-03-23T19:34:32.662Z,16.30
2023-03-23T19:37:06.005Z,16.30
2023-03-23T19:39:39.107Z,16.30
2023-03-23T19:42:08.026Z,16.20
2023-03-23T19:44:36.039Z,16.20
2023-03-23T19:47:07.221Z,16.20
2023-03-23T19:49:35.743Z,16.10
2023-03-23T19:52:12.040Z,16.20
2023-03-23T19:54:42.238Z,16.20
2023-03-23T19:57:11.292Z,16.20
2023-03-23T19:59:39.794Z,16.20
2023-03-23T20:02:08.598Z,16.20
2023-03-23T20:04:37.213Z,16.20
2023-03-23T20:07:08.506Z,16.30
2023-03-23T20:09:38.267Z,16.30
2023-03-23T20:12:07.104Z,16.30
2023-03-23T20:14:36.966Z,16.30
2023-03-23T20:17:09.797Z,16.40
2023-03-23T20:19:38.264Z,16.30
2023-03-23T20:22:07.978Z,16.30
2023-03-23T20:24:38.062Z,16.30
2023-03-23T20:27:06.453Z,16.30
2023-03-23T20:29:35.036Z,16.30
2023-03-23T20:32:03.284Z,16.20
2023-03-23T20:34:31.631Z,16.20
2023-03-23T20:37:01.933Z,16.20
2023-03-23T20:39:33.085Z,16.20
2023-03-23T20:42:03.198Z,16.30
2023-03-23T20:44:35.138Z,16.20
2023-03-23T20:47:03.902Z,16.20
2023-03-23T20:49:32.105Z,16.20
2023-03-23T20:52:00.933Z,16.10
2023-03-23T20:54:30.236Z,16.10
2023-03-23T20:56:59.882Z,16.00
2023-03-23T20:59:28.010Z,16.00
2023-03-23T21:01:56.501Z,15.90
2023-03-23T21:04:27.360Z,15.90
2023-03-23T21:06:56.371Z,15.80
2023-03-23T21:09:24.765Z,15.80
2023-03-23T21:11:52.761Z,15.70
2023-03-23T21:14:22.426Z,15.70
2023-03-23T21:16:51.024Z,15.60
2023-03-23T21:19:19.664Z,15.60
2023-03-23T21:21:55.701Z,15.50
2023-03-23T21:24:26.474Z,15.50
2023-03-23T21:26:55.087Z,15.40
2023-03-23T21:29:24.886Z,15.40
2023-03-23T21:32:05.294Z,15.40
2023-03-23T21:34:36.168Z,15.40
2023-03-23T21:37:04.198Z,15.30
2023-03-23T21:39:32.301Z,15.30
2023-03-23T21:42:01.814Z,15.30
2023-03-23T21:44:35.017Z,15.20
2023-03-23T21:47:03.450Z,15.20
2023-03-23T21:49:34.039Z,15.20
2023-03-23T21:52:02.243Z,15.10
2023-03-23T21:54:31.069Z,15.10
2023-03-23T21:56:59.240Z,15.10
2023-03-23T21:59:27.854Z,15.10
2023-03-23T22:01:58.570Z,15.00
2023-03-23T22:04:28.048Z,15.00
2023-03-23T22:06:56.847Z,15.00
2023-03-23T22:09:25.105Z,14.90
2023-03-23T22:11:53.237Z,14.90
2023-03-23T22:14:21.600Z,14.90
2023-03-23T22:16:49.745Z,14.90
2023-03-23T22:19:19.335Z,14.80
2023-03-23T22:21:47.862Z,14.80
2023-03-23T22:24:15.978Z,14.80
2023-03-23T22:26:44.115Z,14.70
2023-03-23T22:29:12.690Z,14.80
2023-03-23T22:31:41.447Z,14.80
2023-03-23T22:34:09.800Z,14.70
2023-03-23T22:36:40.216Z,14.80
2023-03-23T22:39:09.813Z,14.70
2023-03-23T22:41:40.141Z,14.80
2023-03-23T22:44:12.806Z,14.70
2023-03-23T22:46:40.955Z,14.70
2023-03-23T22:49:09.160Z,14.70
2023-03-23T22:51:39.991Z,14.60
2023-03-23T22:54:08.503Z,14.70
2023-03-23T22:56:37.916Z,14.60
2023-03-23T22:59:07.050Z,14.60
2023-03-23T23:01:36.105Z,14.60
2023-03-23T23:04:05.196Z,14.60
2023-03-23T23:06:33.301Z,14.60
2023-03-23T23:09:02.783Z,14.60
2023-03-23T23:11:31.475Z,14.60
2023-03-23T23:13:59.598Z,14.60
2023-03-23T23:16:27.735Z,14.60
2023-03-23T23:18:56.082Z,14.60
2023-03-23T23:21:27.182Z,14.60
2023-03-23T23:23:55.339Z,14.60
2023-03-23T23:26:25.038Z,14.60
2023-03-23T23:28:53.235Z,14.50
2023-03-23T23:31:26.182Z,14.50
2023-03-23T23:33:56.163Z,14.50
2023-03-23T23:36:28.223Z,14.60
2023-03-23T23:38:56.605Z,14.50
2023-03-23T23:41:26.399Z,14.50
2023-03-23T23:43:54.936Z,14.40
2023-03-23T23:46:23.074Z,14.50
2023-03-23T23:48:51.202Z,14.50
2023-03-23T23:51:19.590Z,14.40
2023-03-23T23:53:53.274Z,14.40
2023-03-23T23:56:22.672Z,14.40
2023-03-23T23:58:52.702Z,14.40
